Time;durP1;ratioP1;P1;durP2;ratioP2;P2;SDS_P1;SDS_P2;PMS_P1;PMS_P2;Temp;Humidity;BMP_temperature;BMP_pressure;BME280_temperature;BME280_humidity;BME280_pressure;Samples;Min_cycle;Max_cycle;Signal;HPM_P1;HPM_P2
2022/04/25 00:01:04;;;;;;;4.10;2.70;;;;;;;10.76;78.58;97966.02;104922;1271;61115;-22
2022/04/25 00:03:33;;;;;;;4.50;3.10;;;;;;;10.64;78.72;97951.92;104899;1271;75423;-22
2022/04/25 00:06:03;;;;;;;5.90;3.60;;;;;;;10.41;79.33;97933.15;104874;1271;76238;-22
2022/04/25 00:08:37;;;;;;;3.70;2.70;;;;;;;10.27;80.67;97902.45;104729;1271;74389;-23
2022/04/25 00:11:12;;;;;;;6.50;4.00;;;;;;;10.57;79.45;97886.67;104692;1274;61027;-22
2022/04/25 00:13:47;;;;;;;5.10;3.30;;;;;;;10.96;77.02;97900.61;104760;1272;61092;-22
2022/04/25 00:16:18;;;;;;;5.10;3.50;;;;;;;11.07;76.29;97913.59;104934;1271;75627;-21
2022/04/25 00:18:48;;;;;;;6.00;2.90;;;;;;;10.87;76.65;97921.31;104775;1271;74808;-22
2022/04/25 00:21:22;;;;;;;6.60;2.30;;;;;;;10.82;77.91;97939.02;104844;1271;74176;-22
2022/04/25 00:23:57;;;;;;;6.70;3.90;;;;;;;11.12;76.88;97916.02;104852;1271;61731;-22
2022/04/25 00:26:30;;;;;;;4.80;2.60;;;;;;;11.22;76.53;97914.83;104793;1271;61000;-21
2022/04/25 00:29:09;;;;;;;4.00;3.20;;;;;;;10.81;78.51;97933.03;104847;1271;75423;-21
2022/04/25 00:31:39;;;;;;;4.20;2.70;;;;;;;10.59;80.10;97944.80;104841;1271;76036;-23
2022/04/25 00:34:12;;;;;;;;;;;;;;;10.89;79.42;97964.49;104739;1271;74389;-23
2022/04/25 00:36:44;;;;;;;7.80;2.70;;;;;;;10.95;79.04;97968.46;104759;1273;61063;-21
2022/04/25 00:39:13;;;;;;;11.90;3.40;;;;;;;10.73;80.41;97975.00;104947;1271;62263;-21
2022/04/25 00:41:43;;;;;;;9.00;3.30;;;;;;;10.53;81.64;97951.73;104829;1271;75329;-21
2022/04/25 00:44:12;;;;;;;5.70;2.20;;;;;;;10.88;80.42;97924.02;104884;1271;76254;-21
2022/04/25 00:46:41;;;;;;;3.40;2.30;;;;;;;11.04;79.57;97943.24;104917;1271;74263;-21
2022/04/25 00:49:11;;;;;;;5.90;2.60;;;;;;;10.87;80.40;97956.77;104882;1271;62124;-21
2022/04/25 00:51:42;;;;;;;2.70;2.30;;;;;;;10.70;81.77;97966.39;105044;1271;61064;-21
2022/04/25 00:54:11;;;;;;;6.80;2.90;;;;;;;10.96;80.86;97982.31;104833;1271;74489;-21
2022/04/25 00:56:39;;;;;;;10.80;3.00;;;;;;;11.01;80.60;97982.40;104939;1271;76062;-21
2022/04/25 00:59:17;;;;;;;9.10;3.60;;;;;;;10.84;81.30;97998.71;104898;1271;74579;-21
2022/04/25 01:01:45;;;;;;;6.10;2.80;;;;;;;11.10;80.94;97990.91;104816;1271;62740;-21
2022/04/25 01:04:17;;;;;;;9.00;2.60;;;;;;;11.41;79.69;97983.09;105126;1271;61095;-22
2022/04/25 01:06:48;;;;;;;5.20;2.30;;;;;;;11.39;79.63;97980.02;105170;1271;75592;-22
2022/04/25 01:09:16;;;;;;;9.40;2.60;;;;;;;11.17;80.24;97968.23;105018;1271;75806;-22
2022/04/25 01:11:45;;;;;;;8.20;2.40;;;;;;;11.34;80.28;97953.25;105137;1271;74418;-21
2022/04/25 01:14:16;;;;;;;8.10;2.60;;;;;;;11.54;79.66;97932.16;105063;1271;61343;-22
2022/04/25 01:16:45;;;;;;;5.50;2.00;;;;;;;11.51;80.26;97923.06;104682;1271;61028;-21
2022/04/25 01:19:14;;;;;;;5.30;2.20;;;;;;;11.38;80.97;97900.88;104958;1271;75679;-20
2022/04/25 01:21:50;;;;;;;9.30;2.10;;;;;;;11.64;80.53;97886.77;104961;1271;76343;-22
2022/04/25 01:27:17;;;;;;;5.10;2.60;;;;;;;11.73;80.02;97870.41;105034;1271;61239;-23
2022/04/25 01:29:53;;;;;;;5.60;2.10;;;;;;;11.59;80.42;97862.46;104963;1271;62069;-23
2022/04/25 01:32:22;;;;;;;6.80;2.90;;;;;;;11.85;79.77;97868.30;105080;1271;74481;-23
2022/04/25 01:34:52;;;;;;;4.20;1.50;;;;;;;11.91;79.42;97870.20;104908;1271;76147;-23
2022/04/25 01:37:21;;;;;;;7.10;2.20;;;;;;;11.78;79.65;97878.20;104914;1270;73202;-23
2022/04/25 01:39:51;;;;;;;5.50;1.80;;;;;;;11.55;80.73;97895.87;104960;1271;62572;-23
2022/04/25 01:42:22;;;;;;;7.70;2.20;;;;;;;11.77;80.19;97915.98;104800;1271;61759;-23
2022/04/25 01:44:51;;;;;;;4.50;2.20;;;;;;;11.88;79.67;97915.42;104806;1271;74311;-20
2022/04/25 01:47:20;;;;;;;6.40;2.60;;;;;;;11.70;79.93;97908.02;104806;1271;75947;-20
2022/04/25 01:49:49;;;;;;;5.30;2.50;;;;;;;11.38;80.90;97898.45;104947;1271;74405;-23
2022/04/25 01:52:33;;;;;;;5.50;2.30;;;;;;;11.51;80.99;97872.10;104928;1271;61130;-20
2022/04/25 01:55:15;;;;;;;5.00;3.00;;;;;;;11.60;80.06;97844.42;104741;1271;61128;-20
2022/04/25 01:57:44;;;;;;;4.90;2.00;;;;;;;11.43;79.97;97818.42;104897;1271;75541;-20
2022/04/25 02:00:15;;;;;;;7.60;2.80;;;;;;;11.23;80.86;97781.75;104993;1271;75003;-19
2022/04/25 02:02:44;;;;;;;4.30;2.30;;;;;;;11.35;80.50;97755.98;104924;1274;73458;-20
2022/04/25 02:05:13;;;;;;;5.00;3.20;;;;;;;11.35;80.15;97766.42;105108;1271;61115;-20
2022/04/25 02:07:45;;;;;;;11.80;2.90;;;;;;;11.15;80.57;97768.30;105014;1271;61070;-20
2022/04/25 02:10:15;;;;;;;7.30;2.00;;;;;;;11.12;81.10;97779.05;104948;1271;75561;-20
2022/04/25 02:12:44;;;;;;;6.20;2.80;;;;;;;11.35;80.21;97769.48;104971;1271;76221;-20
2022/04/25 02:15:14;;;;;;;10.80;3.20;;;;;;;11.32;79.89;97777.98;104919;1271;74454;-20
2022/04/25 02:17:44;;;;;;;4.40;3.00;;;;;;;11.11;80.62;97773.05;104960;1271;61156;-20
2022/04/25 02:20:13;;;;;;;4.00;2.00;;;;;;;11.03;81.16;97770.30;104932;1271;61211;-20
2022/04/25 02:22:43;;;;;;;4.10;2.80;;;;;;;11.26;80.49;97773.23;104903;1271;75222;-20
2022/04/25 02:25:13;;;;;;;5.10;2.90;;;;;;;11.27;80.20;97763.24;104939;1271;76743;-20
2022/04/25 02:27:43;;;;;;;6.00;3.00;;;;;;;11.05;80.93;97758.33;104909;1271;75123;-21
2022/04/25 02:30:12;;;;;;;5.90;3.00;;;;;;;10.95;81.48;97795.68;104916;1271;63688;-20
2022/04/25 02:32:43;;;;;;;3.80;3.00;;;;;;;11.33;80.43;97824.59;104798;1271;61067;-20
2022/04/25 02:35:12;;;;;;;4.60;3.20;;;;;;;11.41;80.02;97816.47;104956;1271;75603;-20
2022/04/25 02:37:41;;;;;;;8.20;3.30;;;;;;;11.25;80.00;97799.92;104922;1271;75991;-20
2022/04/25 02:40:13;;;;;;;4.30;2.80;;;;;;;11.08;80.88;97810.17;104939;1271;74500;-21
2022/04/25 02:42:44;;;;;;;4.80;2.60;;;;;;;11.34;80.44;97826.09;105015;1269;61281;-20
2022/04/25 02:45:13;;;;;;;7.30;3.50;;;;;;;11.43;79.63;97814.52;105185;1271;61118;-20
2022/04/25 02:47:44;;;;;;;6.70;3.70;;;;;;;11.28;80.09;97809.70;105109;1271;75386;-20
2022/04/25 02:50:13;;;;;;;6.90;2.60;;;;;;;11.05;81.15;97803.15;104925;1271;76042;-20
2022/04/25 02:52:42;;;;;;;6.80;3.40;;;;;;;11.32;80.97;97815.66;104843;1272;74220;-19
2022/04/25 02:55:11;;;;;;;6.20;3.90;;;;;;;11.47;80.03;97820.91;104888;1271;61166;-20
2022/04/25 02:57:46;;;;;;;6.10;4.00;;;;;;;11.45;79.70;97813.52;104873;1271;61141;-20
2022/04/25 03:00:15;;;;;;;6.50;3.90;;;;;;;11.32;79.83;97807.23;104965;1271;75615;-20
2022/04/25 03:02:44;;;;;;;6.30;3.30;;;;;;;11.25;80.35;97801.98;104658;1274;74829;-20
2022/04/25 03:05:14;;;;;;;8.80;3.20;;;;;;;11.72;79.42;97801.08;104888;1271;74692;-20
2022/04/25 03:07:44;;;;;;;5.70;3.00;;;;;;;11.88;78.16;97820.95;105055;1271;61052;-20
2022/04/25 03:10:13;;;;;;;5.00;3.20;;;;;;;11.63;79.32;97836.85;105015;1271;62118;-21
2022/04/25 03:12:42;;;;;;;7.20;3.40;;;;;;;11.38;80.19;97852.04;105061;1271;75556;-20
2022/04/25 03:15:11;;;;;;;5.30;3.10;;;;;;;11.06;81.41;97853.96;104817;1272;75924;-20
2022/04/25 03:17:41;;;;;;;8.30;3.40;;;;;;;11.48;80.66;97855.58;104938;1271;72550;-20
2022/04/25 03:20:11;;;;;;;6.40;3.50;;;;;;;11.47;80.52;97858.31;104899;1271;62089;-20
2022/04/25 03:22:47;;;;;;;9.20;3.80;;;;;;;11.38;80.50;97854.38;104751;1271;61162;-20
2022/04/25 03:25:16;;;;;;;8.30;2.90;;;;;;;11.23;80.86;97852.56;104818;1271;75315;-20
2022/04/25 03:27:45;;;;;;;10.90;2.90;;;;;;;11.23;81.09;97846.81;104916;1271;75034;-20
2022/04/25 03:30:18;;;;;;;5.40;3.70;;;;;;;11.58;79.82;97856.27;104879;1271;74377;-20
2022/04/25 03:32:47;;;;;;;8.00;2.80;;;;;;;11.64;79.61;97855.50;104776;1271;61029;-20
2022/04/25 03:35:18;;;;;;;4.20;2.30;;;;;;;11.41;80.15;97862.58;104913;1271;60999;-20
2022/04/25 03:37:47;;;;;;;5.60;2.80;;;;;;;11.41;80.02;97859.73;104948;1271;74594;-20
2022/04/25 03:40:15;;;;;;;7.40;3.30;;;;;;;11.32;80.54;97858.46;105131;1271;75895;-20
2022/04/25 03:42:45;;;;;;;8.40;3.40;;;;;;;11.50;80.27;97855.20;105153;1271;74269;-20
2022/04/25 03:45:18;;;;;;;4.70;3.30;;;;;;;11.92;78.50;97855.97;105088;1271;61127;-20
2022/04/25 03:47:46;;;;;;;8.80;3.80;;;;;;;11.92;78.25;97853.36;105156;1271;61856;-20
2022/04/25 03:50:16;;;;;;;8.40;3.70;;;;;;;11.79;78.38;97852.69;104955;1271;75737;-20
2022/04/25 03:52:45;;;;;;;5.00;2.80;;;;;;;11.52;79.82;97859.85;104859;1271;75989;-20
2022/04/25 03:58:04;;;;;;;9.10;3.30;;;;;;;12.54;77.13;97866.38;104777;1273;61213;-20
2022/04/25 04:00:33;;;;;;;5.80;3.10;;;;;;;12.58;76.87;97874.10;104842;1271;61255;-20
2022/04/25 04:03:02;;;;;;;5.90;3.30;;;;;;;12.45;77.10;97876.19;104909;1271;76003;-20
2022/04/25 04:05:32;;;;;;;6.30;2.90;;;;;;;12.31;77.63;97872.79;104885;1271;76194;-20
2022/04/25 04:08:05;;;;;;;10.20;3.70;;;;;;;12.70;76.77;97872.47;104794;1271;74114;-20
2022/04/25 04:10:36;;;;;;;6.10;3.20;;;;;;;12.76;75.80;97872.56;104896;1271;61923;-20
2022/04/25 04:13:05;;;;;;;3.40;2.70;;;;;;;12.44;76.18;97869.73;104924;1271;61159;-20
2022/04/25 04:15:35;;;;;;;9.50;4.00;;;;;;;12.21;77.06;97863.65;104949;1271;73211;-20
2022/04/25 04:18:07;;;;;;;5.80;3.10;;;;;;;12.00;77.92;97859.34;104819;1271;75229;-20
2022/04/25 04:20:36;;;;;;;7.10;3.40;;;;;;;12.32;77.65;97858.29;104922;1271;74235;-20
2022/04/25 04:23:05;;;;;;;5.10;3.20;;;;;;;12.55;76.64;97860.86;104855;1271;61167;-20
2022/04/25 04:25:36;;;;;;;5.60;3.10;;;;;;;12.46;76.81;97858.16;104759;1271;62083;-20
2022/04/25 04:28:06;;;;;;;6.00;3.90;;;;;;;12.27;77.37;97852.08;104878;1271;75942;-20
2022/04/25 04:30:35;;;;;;;5.40;2.40;;;;;;;12.06;78.56;97853.69;104914;1271;75000;-20
2022/04/25 04:33:05;;;;;;;3.70;2.50;;;;;;;12.48;77.54;97862.52;104928;1271;74370;-20
2022/04/25 04:38:22;;;;;;;6.60;3.60;;;;;;;12.43;76.96;97885.77;105047;1274;61114;-20
2022/04/25 04:40:50;;;;;;;10.50;4.10;;;;;;;12.25;77.63;97890.31;105137;1273;75511;-20
2022/04/25 04:43:23;;;;;;;3.60;2.70;;;;;;;12.20;78.05;97889.11;104945;1271;75964;-22
2022/04/25 04:45:51;;;;;;;7.80;3.70;;;;;;;12.52;77.42;97890.27;104606;1271;368242;-22
2022/04/25 04:48:20;;;;;;;4.30;2.80;;;;;;;12.69;76.40;97893.50;104744;1271;61908;-22
2022/04/25 04:50:55;;;;;;;6.70;3.90;;;;;;;12.53;76.78;97881.63;104953;1271;62206;-21
2022/04/25 04:53:25;;;;;;;6.00;3.00;;;;;;;12.40;77.05;97879.65;104909;1271;75791;-21
2022/04/25 04:55:56;;;;;;;7.10;3.50;;;;;;;12.41;77.85;97873.45;104757;1274;74934;-20
2022/04/25 04:58:25;;;;;;;7.40;3.60;;;;;;;12.84;76.56;97871.96;104873;1271;74652;-20
2022/04/25 05:01:13;;;;;;;4.50;2.70;;;;;;;12.98;76.21;97871.94;104876;1271;63389;-21
2022/04/25 05:03:43;;;;;;;8.10;3.20;;;;;;;12.87;76.45;97875.72;105139;1271;61084;-21
2022/04/25 05:06:15;;;;;;;12.90;3.30;;;;;;;12.70;77.31;97875.81;105017;1271;75570;-21
2022/04/25 05:08:43;;;;;;;8.10;3.60;;;;;;;12.91;76.72;97877.66;104963;1271;76026;-21
2022/04/25 05:11:19;;;;;;;9.10;3.60;;;;;;;13.19;75.30;97877.95;104922;1271;72997;-21
2022/04/25 05:13:48;;;;;;;4.80;2.90;;;;;;;13.12;75.46;97881.95;104914;1271;62647;-22
2022/04/25 05:16:17;;;;;;;13.60;4.20;;;;;;;12.91;75.58;97884.13;104993;1271;61067;-20
2022/04/25 05:19:42;;;;;;;5.90;3.00;;;;;;;12.67;76.97;97887.15;104755;1271;74532;-20
2022/04/25 05:22:11;;;;;;;6.60;3.40;;;;;;;13.08;75.98;97886.95;105142;1274;76189;-21
2022/04/25 05:24:40;;;;;;;7.20;4.20;;;;;;;13.22;74.67;97888.09;105132;1271;74549;-22
2022/04/25 05:27:09;;;;;;;4.30;2.90;;;;;;;13.05;75.34;97896.27;105054;1271;61295;-21
2022/04/25 05:29:39;;;;;;;5.20;2.60;;;;;;;12.80;76.11;97896.77;104845;1271;60998;-21
2022/04/25 05:32:12;;;;;;;5.80;2.40;;;;;;;12.83;76.28;97895.70;104955;1271;75605;-21
2022/04/25 05:34:41;;;;;;;9.00;4.30;;;;;;;13.06;75.02;97897.51;104703;1274;76322;-21
2022/04/25 05:37:13;;;;;;;5.40;3.10;;;;;;;13.14;74.75;97893.29;104913;1271;74435;-22
2022/04/25 05:39:42;;;;;;;4.70;3.40;;;;;;;12.99;75.15;97899.16;104925;1271;61363;-24
2022/04/25 05:42:11;;;;;;;6.10;3.90;;;;;;;12.75;75.75;97903.11;104966;1271;61790;-21
2022/04/25 05:44:43;;;;;;;5.30;3.30;;;;;;;12.84;75.90;97895.52;104814;1274;75790;-21
2022/04/25 05:47:11;;;;;;;6.70;3.00;;;;;;;13.19;74.42;97893.10;105097;1270;75788;-21
2022/04/25 05:52:31;;;;;;;6.90;4.40;;;;;;;13.09;74.43;97880.74;104840;1271;61960;-22
2022/04/25 05:55:00;;;;;;;6.30;3.50;;;;;;;12.91;75.36;97878.36;104951;1271;62291;-21
2022/04/25 05:57:30;;;;;;;8.50;3.70;;;;;;;13.11;74.67;97879.16;105033;1271;75524;-22
2022/04/25 05:59:59;;;;;;;8.50;4.10;;;;;;;13.34;74.37;97883.02;105136;1271;75077;-23
2022/04/25 06:02:29;;;;;;;7.40;4.50;;;;;;;13.30;74.50;97884.63;105134;1271;73451;-22
2022/04/25 06:04:58;;;;;;;5.90;4.70;;;;;;;13.24;73.65;97882.23;105149;1271;61236;-23
2022/04/25 06:07:33;;;;;;;5.50;3.30;;;;;;;13.12;74.84;97885.78;104938;1270;61103;-24
2022/04/25 06:10:03;;;;;;;5.30;3.20;;;;;;;13.40;73.30;97888.21;104791;1272;74625;-25
2022/04/25 06:12:32;;;;;;;6.00;3.70;;;;;;;13.64;72.56;97884.86;104764;1272;75876;-23
2022/04/25 06:15:06;;;;;;;8.20;4.50;;;;;;;13.73;72.30;97878.58;104829;1271;74210;-23
2022/04/25 06:17:44;;;;;;;6.60;3.60;;;;;;;13.58;72.25;97874.05;105100;1272;61150;-23
2022/04/25 06:20:12;;;;;;;6.50;4.30;;;;;;;13.32;73.02;97877.79;105142;1271;61121;-23
2022/04/25 06:22:51;;;;;;;4.80;3.70;;;;;;;13.46;73.72;97884.67;105159;1271;75555;-24
2022/04/25 06:25:19;;;;;;;5.90;3.50;;;;;;;13.85;72.21;97888.92;105149;1271;74947;-24
2022/04/25 06:27:48;;;;;;;9.80;4.20;;;;;;;13.94;71.18;97889.00;105103;1271;74246;-24
2022/04/25 06:30:23;;;;;;;6.90;4.20;;;;;;;13.92;71.77;97898.59;105111;1271;61131;-26
2022/04/25 06:32:54;;;;;;;9.70;4.70;;;;;;;13.61;72.21;97903.08;105043;1270;61254;-25
2022/04/25 06:35:23;;;;;;;6.10;3.60;;;;;;;13.45;73.04;97906.44;105012;1271;74576;-25
2022/04/25 06:37:51;;;;;;;7.00;4.20;;;;;;;13.71;72.64;97910.90;104920;1273;75902;-23
2022/04/25 06:40:26;;;;;;;5.40;3.20;;;;;;;13.98;71.05;97911.91;105053;1272;74489;-25
2022/04/25 06:42:56;;;;;;;7.40;4.60;;;;;;;13.78;71.64;97911.16;105099;1271;61109;-23
2022/04/25 06:45:30;;;;;;;9.20;4.80;;;;;;;13.85;71.44;97913.56;105052;1271;61009;-24
2022/04/25 06:47:59;;;;;;;6.90;5.00;;;;;;;13.78;71.73;97915.66;104817;1274;75645;-24
2022/04/25 06:50:28;;;;;;;9.30;4.10;;;;;;;13.77;72.24;97913.02;105063;1271;75725;-24
2022/04/25 06:52:58;;;;;;;6.00;3.70;;;;;;;14.13;70.99;97919.60;105046;1271;74717;-24
2022/04/25 06:55:28;;;;;;;9.10;3.80;;;;;;;14.48;69.92;97918.31;105002;1271;62523;-24
2022/04/25 06:57:59;;;;;;;7.20;4.60;;;;;;;14.50;69.67;97918.05;105062;1271;61175;-24
2022/04/25 07:00:31;;;;;;;6.50;4.00;;;;;;;14.58;70.78;97924.82;105004;1271;75682;-24
2022/04/25 07:03:16;;;;;;;7.20;4.30;;;;;;;14.60;70.09;97923.13;104927;1271;76082;-24
2022/04/25 07:05:44;;;;;;;6.40;3.50;;;;;;;14.47;70.11;97922.77;104920;1271;74337;-24
2022/04/25 07:08:13;;;;;;;6.60;3.50;;;;;;;14.83;69.18;97921.30;104956;1271;61148;-24
2022/04/25 07:10:46;;;;;;;5.40;3.80;;;;;;;15.33;67.46;97923.12;105033;1271;61044;-24
2022/04/25 07:13:18;;;;;;;6.90;3.80;;;;;;;15.06;66.72;97924.19;105118;1271;75687;-26
2022/04/25 07:15:46;;;;;;;6.40;3.80;;;;;;;15.06;67.00;97923.79;105069;1271;76072;-23
2022/04/25 07:18:15;;;;;;;6.00;3.60;;;;;;;15.04;67.41;97926.50;105138;1271;74354;-23
2022/04/25 07:20:43;;;;;;;8.70;3.40;;;;;;;14.99;68.54;97923.61;105168;1271;62485;-23
2022/04/25 07:28:57;;;;;;;5.00;3.30;;;;;;;15.43;66.49;97913.79;104754;1274;76187;-25
2022/04/25 07:31:26;;;;;;;6.20;3.60;;;;;;;15.87;64.57;97914.76;105055;1274;74851;-24
2022/04/25 07:33:57;;;;;;;5.00;3.10;;;;;;;15.94;64.14;97913.59;105111;1271;61009;-23
2022/04/25 07:36:29;;;;;;;9.80;3.80;;;;;;;15.92;64.90;97917.15;105027;1271;61070;-24
2022/04/25 07:38:57;;;;;;;6.80;3.70;;;;;;;15.79;64.19;97911.44;105113;1271;74523;-25
2022/04/25 07:41:27;;;;;;;6.40;3.90;;;;;;;15.45;64.86;97916.41;105134;1271;76108;-24
2022/04/25 07:43:56;;;;;;;16.80;2.90;;;;;;;15.13;65.26;97919.84;105127;1271;74259;-23
2022/04/25 07:46:26;;;;;;;10.10;3.80;;;;;;;15.00;66.12;97925.01;105073;1271;61157;-23
2022/04/25 07:48:55;;;;;;;10.10;3.80;;;;;;;15.13;65.89;97926.70;105185;1271;62027;-23
2022/04/25 07:51:24;;;;;;;5.40;3.40;;;;;;;15.02;65.97;97926.23;105144;1270;75254;-25
2022/04/25 07:53:52;;;;;;;7.30;3.60;;;;;;;15.05;66.10;97925.27;105156;1271;75783;-25
2022/04/25 07:56:21;;;;;;;5.80;2.80;;;;;;;15.15;66.36;97929.23;104959;1271;74158;-25
2022/04/25 07:58:49;;;;;;;7.70;3.50;;;;;;;15.50;64.85;97927.67;104886;1271;62340;-25
2022/04/25 08:01:21;;;;;;;6.70;3.40;;;;;;;15.64;64.47;97931.07;104879;1271;61131;-26
2022/04/25 08:03:51;;;;;;;6.30;3.70;;;;;;;15.80;63.82;97932.54;104940;1274;75595;-24
2022/04/25 08:06:20;;;;;;;5.70;3.30;;;;;;;15.80;63.68;97931.34;105128;1271;76000;-26
2022/04/25 08:08:50;;;;;;;8.90;3.10;;;;;;;15.85;63.40;97927.91;105123;1271;73189;-26
2022/04/25 08:11:18;;;;;;;8.40;3.20;;;;;;;15.87;63.57;97930.33;105048;1271;62354;-25
2022/04/25 08:19:39;;;;;;;8.60;3.60;;;;;;;15.66;63.86;97924.81;104719;1274;75734;-24
2022/04/25 08:22:09;;;;;;;7.30;3.40;;;;;;;15.80;63.28;97911.92;104934;1271;74406;-25
2022/04/25 08:24:41;;;;;;;7.90;3.20;;;;;;;15.83;63.10;97915.20;105057;1271;62045;-25
2022/04/25 08:27:13;;;;;;;7.80;3.00;;;;;;;15.80;62.46;97917.17;105096;1274;61051;-25
2022/04/25 08:29:43;;;;;;;6.40;3.00;;;;;;;15.70;63.02;97913.48;105057;1271;74534;-25
2022/04/25 08:32:12;;;;;;;6.60;2.70;;;;;;;15.93;62.72;97915.39;104857;1271;76392;-25
2022/04/25 08:34:40;;;;;;;4.70;3.30;;;;;;;16.04;61.93;97915.69;104935;1271;74189;-25
2022/04/25 08:37:09;;;;;;;9.50;4.40;;;;;;;16.29;61.53;97920.80;104933;1271;62063;-26
2022/04/25 08:39:38;;;;;;;6.20;3.00;;;;;;;16.59;60.29;97920.13;105104;1272;61040;-27
2022/04/25 08:42:10;;;;;;;7.10;3.30;;;;;;;16.69;60.04;97922.80;105085;1274;75368;-26
2022/04/25 08:45:00;;;;;;;3.60;2.50;;;;;;;16.82;60.48;97921.49;104977;1271;76068;-28
2022/04/25 08:47:33;;;;;;;4.60;2.30;;;;;;;17.07;57.69;97917.73;105047;1271;74423;-27
2022/04/25 08:50:02;;;;;;;5.90;2.50;;;;;;;17.53;57.54;97920.86;104809;1274;61918;-26
2022/04/25 08:52:32;;;;;;;7.30;2.80;;;;;;;17.86;56.39;97919.77;105094;1271;62020;-25
2022/04/25 08:55:02;;;;;;;6.10;2.60;;;;;;;18.18;55.22;97919.33;105145;1274;74443;-25
2022/04/25 08:57:35;;;;;;;6.90;2.10;;;;;;;18.37;53.18;97914.95;105153;1271;73931;-25
2022/04/25 09:00:05;;;;;;;6.60;2.40;;;;;;;18.75;52.80;97913.77;105125;1271;74264;-26
2022/04/25 09:02:38;;;;;;;5.50;2.00;;;;;;;19.12;53.16;97907.77;105090;1271;61172;-26
2022/04/25 09:05:08;;;;;;;6.00;2.20;;;;;;;19.37;50.54;97902.44;104959;1271;61143;-26
2022/04/25 09:07:38;;;;;;;9.20;2.80;;;;;;;19.65;51.26;97900.46;104789;1271;75271;-26
2022/04/25 09:10:12;;;;;;;4.60;2.30;;;;;;;19.67;51.18;97901.59;105019;1271;74831;-26
2022/04/25 09:12:42;;;;;;;6.90;2.90;;;;;;;19.97;51.33;97901.46;104810;1271;74613;-26
2022/04/25 09:15:20;;;;;;;5.90;1.80;;;;;;;20.38;50.85;97898.39;105060;1274;61235;-27
2022/04/25 09:17:56;;;;;;;6.30;1.90;;;;;;;20.45;48.75;97894.90;104740;1272;61166;-26
2022/04/25 09:20:25;;;;;;;3.80;1.80;;;;;;;20.48;49.55;97897.81;104837;1271;75480;-26
2022/04/25 09:23:00;;;;;;;5.80;1.90;;;;;;;20.68;47.84;97896.17;104716;1271;76221;-26
2022/04/25 09:25:29;;;;;;;4.70;1.80;;;;;;;20.95;45.96;97893.75;104992;1271;73185;-26
2022/04/25 09:28:14;;;;;;;2.80;1.40;;;;;;;21.11;45.24;97890.60;104900;1271;61063;-26
2022/04/25 09:30:55;;;;;;;6.60;1.80;;;;;;;21.01;45.78;97891.11;104865;1271;61009;-27
2022/04/25 09:33:29;;;;;;;6.60;1.80;;;;;;;20.84;46.28;97888.41;104999;1272;75720;-26
2022/04/25 09:35:57;;;;;;;4.10;1.70;;;;;;;20.87;45.97;97883.25;104930;1271;75882;-26
2022/04/25 09:38:37;;;;;;;4.80;2.20;;;;;;;20.83;45.60;97881.98;105098;1271;74146;-26
2022/04/25 09:41:09;;;;;;;8.10;3.30;;;;;;;20.97;46.31;97880.54;104777;1272;61150;-26
2022/04/25 09:43:40;;;;;;;3.90;1.60;;;;;;;20.80;46.53;97880.13;104981;1271;62328;-26
2022/04/25 09:46:12;;;;;;;8.90;2.90;;;;;;;20.20;47.61;97884.02;105037;1272;75319;-25
2022/04/25 09:49:03;;;;;;;6.40;1.80;;;;;;;20.79;47.29;97885.61;104888;1272;75905;-25
2022/04/25 09:51:31;;;;;;;6.10;2.20;;;;;;;20.60;47.62;97886.43;105070;1271;74427;-26
2022/04/25 09:54:04;;;;;;;3.00;1.80;;;;;;;21.09;46.35;97885.61;105140;1271;62056;-25
2022/04/25 09:56:34;;;;;;;3.20;1.30;;;;;;;21.07;45.72;97886.04;105107;1274;61109;-25
2022/04/25 09:59:08;;;;;;;3.20;1.50;;;;;;;20.46;46.36;97886.31;105069;1272;75372;-25
2022/04/25 10:01:39;;;;;;;2.70;1.60;;;;;;;20.15;46.01;97883.04;104991;1271;77683;-25
2022/04/25 10:04:30;;;;;;;7.00;1.50;;;;;;;20.68;43.84;97884.52;105181;1271;74361;-26
2022/04/25 10:07:06;;;;;;;6.30;1.60;;;;;;;21.96;42.74;97881.10;105074;1271;61801;-25
2022/04/25 10:09:39;;;;;;;;;;;;;;;22.86;42.45;97886.11;105149;1271;61057;-25
2022/04/25 10:12:09;;;;;;;4.60;1.50;;;;;;;23.49;39.59;97885.99;104861;1271;75587;-25
2022/04/25 10:14:38;;;;;;;3.30;1.50;;;;;;;24.11;39.53;97882.69;104941;1270;75744;-25
2022/04/25 10:17:06;;;;;;;7.10;1.50;;;;;;;24.01;39.69;97877.42;105062;1271;73131;-25
2022/04/25 10:19:35;;;;;;;6.50;1.40;;;;;;;23.78;38.51;97872.35;104887;1271;61366;-25
2022/04/25 10:22:04;;;;;;;3.10;1.60;;;;;;;23.67;38.35;97870.52;104803;1271;61091;-25
2022/04/25 10:24:32;;;;;;;2.30;1.20;;;;;;;23.32;38.09;97866.34;104915;1271;75588;-25
2022/04/25 10:27:07;;;;;;;5.70;1.90;;;;;;;23.48;37.60;97864.28;104869;1271;76091;-26
2022/04/25 10:29:37;;;;;;;3.80;1.50;;;;;;;23.98;37.57;97857.27;104787;1272;74571;-25
2022/04/25 10:32:08;;;;;;;6.80;1.40;;;;;;;24.43;37.70;97856.25;104912;1271;62372;-25
2022/04/25 10:35:04;;;;;;;3.00;1.20;;;;;;;24.79;36.15;97848.67;104789;1271;61212;-25
2022/04/25 10:37:36;;;;;;;3.00;1.20;;;;;;;24.27;35.28;97853.17;104801;1272;75679;-25
2022/04/25 10:40:06;;;;;;;3.10;1.50;;;;;;;24.59;35.99;97854.55;104640;1274;74484;-25
2022/04/25 10:46:01;;;;;;;3.10;0.90;;;;;;;24.48;32.65;97850.14;105089;1271;61783;-25
2022/04/25 10:48:51;;;;;;;2.80;0.90;;;;;;;24.36;33.08;97854.02;104695;1271;61768;-25
2022/04/25 10:51:20;;;;;;;1.80;0.70;;;;;;;24.43;31.78;97856.41;104965;1271;75553;-25
2022/04/25 10:53:59;;;;;;;2.00;0.90;;;;;;;24.44;33.15;97855.73;105026;1271;75769;-26
2022/04/25 10:56:29;;;;;;;2.80;1.00;;;;;;;24.17;32.74;97846.67;105017;1271;74394;-29
2022/04/25 10:59:26;;;;;;;5.80;0.90;;;;;;;24.21;31.53;97854.18;105071;1271;61245;-26
2022/04/25 11:01:56;;;;;;;6.20;1.20;;;;;;;24.37;33.12;97855.63;105135;1270;62154;-27
2022/04/25 11:04:25;;;;;;;1.20;0.60;;;;;;;24.68;32.32;97851.80;104996;1271;74299;-27
2022/04/25 11:07:21;;;;;;;3.10;0.90;;;;;;;24.80;32.93;97849.59;104847;1270;75981;-26
2022/04/25 11:09:52;;;;;;;3.60;0.80;;;;;;;23.59;32.21;97857.34;104746;1271;74168;-26
2022/04/25 11:13:12;;;;;;;1.70;0.60;;;;;;;23.13;33.17;97853.92;104762;1271;61277;-26
2022/04/25 11:15:42;;;;;;;1.90;0.60;;;;;;;23.53;34.01;97852.11;104299;1280;62140;-26
2022/04/25 11:18:34;;;;;;;3.60;1.20;;;;;;;23.14;33.15;97856.63;104192;1280;75298;-26
2022/04/25 11:21:14;;;;;;;3.30;0.70;;;;;;;21.86;34.94;97859.95;104177;1280;75970;-27
2022/04/25 11:23:44;;;;;;;4.00;0.80;;;;;;;21.77;35.03;97862.77;104343;1281;74380;-25
2022/04/25 11:26:21;;;;;;;4.50;0.80;;;;;;;21.67;34.21;97860.59;104407;1280;61097;-26
2022/04/25 11:28:58;;;;;;;1.90;0.70;;;;;;;21.54;34.59;97858.52;104268;1280;62020;-26
2022/04/25 11:31:30;;;;;;;2.80;0.90;;;;;;;21.96;34.28;97858.66;104257;1281;75866;-26
2022/04/25 11:34:03;;;;;;;2.20;0.60;;;;;;;22.40;34.62;97860.88;104111;1281;74972;-26
2022/04/25 11:36:36;;;;;;;3.10;0.70;;;;;;;22.81;33.76;97862.98;104196;1280;73957;-26
2022/04/25 11:41:54;;;;;;;2.20;0.80;;;;;;;22.30;32.01;97850.52;104249;1280;61497;-27
2022/04/25 11:44:22;;;;;;;4.10;0.80;;;;;;;22.50;32.30;97839.70;104280;1279;75749;-26
2022/04/25 11:46:51;;;;;;;7.30;1.10;;;;;;;22.58;32.43;97841.92;104226;1279;75001;-26
2022/04/25 11:49:29;;;;;;;1.50;0.60;;;;;;;22.73;32.65;97841.48;104210;1277;74567;-26
2022/04/25 11:52:01;;;;;;;0.80;0.50;;;;;;;22.84;33.11;97840.83;104757;1271;61445;-26
2022/04/25 11:54:32;;;;;;;7.20;0.80;;;;;;;22.55;32.74;97837.57;104727;1274;61843;-26
2022/04/25 11:57:03;;;;;;;2.10;0.60;;;;;;;22.27;32.41;97836.09;104715;1271;75568;-26
2022/04/25 11:59:35;;;;;;;6.70;0.80;;;;;;;21.91;33.09;97843.36;104983;1271;76052;-26
2022/04/25 12:02:04;;;;;;;2.20;0.80;;;;;;;21.83;34.76;97842.05;104919;1271;74464;-26
2022/04/25 12:04:33;;;;;;;4.40;0.80;;;;;;;22.14;33.98;97838.66;104898;1271;61148;-26
2022/04/25 12:07:08;;;;;;;2.70;0.80;;;;;;;22.11;34.52;97836.42;104985;1271;61064;-27
2022/04/25 12:18:15;;;;;;;1.30;0.50;;;;;;;21.49;38.33;97845.71;104800;1271;61131;-27
2022/04/25 12:20:49;;;;;;;3.40;0.90;;;;;;;21.73;35.10;97844.00;104845;1271;62028;-26
2022/04/25 12:23:29;;;;;;;2.30;0.70;;;;;;;21.00;35.36;97848.58;104772;1271;75571;-26